Harrington, Washington
Current Conditions -  °F | °C
As of 5:58 AM on Monday 20 Oct 2014 (Local Time) from KSKA Reporting Station
Clear Clear  
Wind Chill: 41°   Ceiling: Unl
Heat Index: 46°   Visibility: 10mi
Dew Point: 45°   Wind: 9mph
Humidity: 97%   Direction: 60°ENE
Pressure: 29.74"   Gusts: NA
Location:  47.48°N, 118.25°W
Report Text: KSKA 201258Z AUTO 06008KT 10SM CLR 08/07 A2974 RMK AO2 SLP072 T00760071 $
Loading
Personal Weather Stations






























Interactive Weather Map
Tropical Storm Tracking
New forecast layout! Learn more

10-Day Weather Forecast

Advertisements
Track Severe Weather on mobile